sensor_id;sensor_type;location;lat;lon;timestamp;pressure;altitude;pressure_sealevel;temperature;humidity
4590;BME280;2307;48.448;9.216;2022-12-16T00:01:48;94051.16;;;-1.28;100.00
4590;BME280;2307;48.448;9.216;2022-12-16T00:04:15;94047.16;;;-1.24;100.00
4590;BME280;2307;48.448;9.216;2022-12-16T00:06:42;94049.53;;;-1.29;100.00
4590;BME280;2307;48.448;9.216;2022-12-16T00:09:08;94053.91;;;-1.36;100.00
4590;BME280;2307;48.448;9.216;2022-12-16T00:11:36;94055.09;;;-1.38;100.00
4590;BME280;2307;48.448;9.216;2022-12-16T00:14:03;94056.44;;;-1.49;100.00
4590;BME280;2307;48.448;9.216;2022-12-16T00:16:29;94053.50;;;-1.39;100.00
4590;BME280;2307;48.448;9.216;2022-12-16T00:18:56;94045.94;;;-1.41;100.00
4590;BME280;2307;48.448;9.216;2022-12-16T00:21:22;94052.69;;;-1.46;100.00
4590;BME280;2307;48.448;9.216;2022-12-16T00:23:52;94051.69;;;-1.39;100.00
4590;BME280;2307;48.448;9.216;2022-12-16T00:26:19;94047.94;;;-1.43;100.00
4590;BME280;2307;48.448;9.216;2022-12-16T00:28:47;94044.72;;;-1.45;100.00
4590;BME280;2307;48.448;9.216;2022-12-16T00:31:13;94042.75;;;-1.43;100.00
4590;BME280;2307;48.448;9.216;2022-12-16T00:33:40;94040.78;;;-1.34;100.00
4590;BME280;2307;48.448;9.216;2022-12-16T00:36:06;94042.72;;;-1.49;100.00
4590;BME280;2307;48.448;9.216;2022-12-16T00:38:33;94034.16;;;-1.50;100.00
4590;BME280;2307;48.448;9.216;2022-12-16T00:41:00;94040.75;;;-1.41;100.00
4590;BME280;2307;48.448;9.216;2022-12-16T00:43:26;94034.34;;;-1.45;100.00
4590;BME280;2307;48.448;9.216;2022-12-16T00:45:54;94037.56;;;-1.49;100.00
4590;BME280;2307;48.448;9.216;2022-12-16T00:48:22;94044.50;;;-1.50;100.00
4590;BME280;2307;48.448;9.216;2022-12-16T00:50:49;94038.16;;;-1.41;100.00
4590;BME280;2307;48.448;9.216;2022-12-16T00:53:16;94043.16;;;-1.33;100.00
4590;BME280;2307;48.448;9.216;2022-12-16T00:55:43;94044.69;;;-1.51;100.00
4590;BME280;2307;48.448;9.216;2022-12-16T00:58:10;94040.28;;;-1.57;100.00
4590;BME280;2307;48.448;9.216;2022-12-16T01:00:37;94044.53;;;-1.43;100.00
4590;BME280;2307;48.448;9.216;2022-12-16T01:03:07;94053.63;;;-1.61;100.00
4590;BME280;2307;48.448;9.216;2022-12-16T01:05:36;94065.81;;;-1.48;100.00
4590;BME280;2307;48.448;9.216;2022-12-16T01:08:03;94066.97;;;-1.57;100.00
4590;BME280;2307;48.448;9.216;2022-12-16T01:10:29;94069.75;;;-1.65;100.00
4590;BME280;2307;48.448;9.216;2022-12-16T01:12:56;94068.09;;;-1.73;100.00
4590;BME280;2307;48.448;9.216;2022-12-16T01:15:22;94069.75;;;-1.65;100.00
4590;BME280;2307;48.448;9.216;2022-12-16T01:17:48;94073.75;;;-1.56;100.00
4590;BME280;2307;48.448;9.216;2022-12-16T01:20:16;94084.09;;;-1.63;100.00
4590;BME280;2307;48.448;9.216;2022-12-16T01:22:43;94085.69;;;-1.55;100.00
4590;BME280;2307;48.448;9.216;2022-12-16T01:25:09;94092.91;;;-1.44;100.00
4590;BME280;2307;48.448;9.216;2022-12-16T01:27:36;94088.47;;;-1.63;100.00
4590;BME280;2307;48.448;9.216;2022-12-16T01:30:03;94092.66;;;-1.96;100.00
4590;BME280;2307;48.448;9.216;2022-12-16T01:32:30;94100.22;;;-1.95;100.00
4590;BME280;2307;48.448;9.216;2022-12-16T01:34:57;94102.56;;;-2.06;100.00
4590;BME280;2307;48.448;9.216;2022-12-16T01:37:25;94099.38;;;-2.02;100.00
4590;BME280;2307;48.448;9.216;2022-12-16T01:39:51;94105.03;;;-1.92;100.00
4590;BME280;2307;48.448;9.216;2022-12-16T01:42:19;94110.16;;;-1.98;100.00
4590;BME280;2307;48.448;9.216;2022-12-16T01:44:46;94113.94;;;-2.01;100.00
4590;BME280;2307;48.448;9.216;2022-12-16T01:47:14;94109.47;;;-1.79;100.00
4590;BME280;2307;48.448;9.216;2022-12-16T01:49:41;94111.47;;;-1.81;100.00
4590;BME280;2307;48.448;9.216;2022-12-16T01:52:10;94116.84;;;-1.76;100.00
4590;BME280;2307;48.448;9.216;2022-12-16T01:54:40;94115.41;;;-1.85;100.00
4590;BME280;2307;48.448;9.216;2022-12-16T01:57:09;94113.84;;;-1.80;100.00
4590;BME280;2307;48.448;9.216;2022-12-16T01:59:37;94118.59;;;-1.83;100.00
4590;BME280;2307;48.448;9.216;2022-12-16T02:02:06;94110.56;;;-1.95;100.00
4590;BME280;2307;48.448;9.216;2022-12-16T02:04:33;94116.09;;;-2.04;100.00
4590;BME280;2307;48.448;9.216;2022-12-16T02:06:59;94117.09;;;-1.99;100.00
4590;BME280;2307;48.448;9.216;2022-12-16T02:09:26;94128.56;;;-1.80;100.00
4590;BME280;2307;48.448;9.216;2022-12-16T02:17:27;94133.13;;;-1.82;100.00
4590;BME280;2307;48.448;9.216;2022-12-16T02:20:18;94142.31;;;-1.80;100.00
4590;BME280;2307;48.448;9.216;2022-12-16T02:22:50;94136.56;;;-1.75;100.00
4590;BME280;2307;48.448;9.216;2022-12-16T02:25:31;94132.59;;;-1.78;100.00
4590;BME280;2307;48.448;9.216;2022-12-16T02:28:02;94133.34;;;-1.77;100.00
4590;BME280;2307;48.448;9.216;2022-12-16T02:33:22;94128.72;;;-1.88;100.00
4590;BME280;2307;48.448;9.216;2022-12-16T02:35:52;94136.41;;;-2.01;100.00
4590;BME280;2307;48.448;9.216;2022-12-16T02:38:20;94134.06;;;-1.90;100.00
4590;BME280;2307;48.448;9.216;2022-12-16T02:40:50;94136.41;;;-2.01;100.00
4590;BME280;2307;48.448;9.216;2022-12-16T02:43:21;94141.19;;;-1.98;100.00
4590;BME280;2307;48.448;9.216;2022-12-16T02:45:51;94135.59;;;-2.02;100.00
4590;BME280;2307;48.448;9.216;2022-12-16T02:48:18;94136.81;;;-1.98;100.00
4590;BME280;2307;48.448;9.216;2022-12-16T02:50:46;94145.59;;;-1.92;100.00
4590;BME280;2307;48.448;9.216;2022-12-16T02:53:14;94148.19;;;-1.92;100.00
4590;BME280;2307;48.448;9.216;2022-12-16T02:55:45;94154.97;;;-2.19;100.00
4590;BME280;2307;48.448;9.216;2022-12-16T02:58:15;94151.00;;;-2.15;100.00
4590;BME280;2307;48.448;9.216;2022-12-16T03:00:49;94158.97;;;-2.17;100.00
4590;BME280;2307;48.448;9.216;2022-12-16T03:03:19;94162.22;;;-2.08;100.00
4590;BME280;2307;48.448;9.216;2022-12-16T03:05:50;94164.53;;;-2.20;100.00
4590;BME280;2307;48.448;9.216;2022-12-16T03:08:19;94161.41;;;-2.08;100.00
4590;BME280;2307;48.448;9.216;2022-12-16T03:10:49;94165.13;;;-2.18;100.00
4590;BME280;2307;48.448;9.216;2022-12-16T03:13:18;94165.66;;;-2.29;100.00
4590;BME280;2307;48.448;9.216;2022-12-16T03:15:45;94170.88;;;-2.22;100.00
4590;BME280;2307;48.448;9.216;2022-12-16T03:18:13;94166.91;;;-2.18;100.00
4590;BME280;2307;48.448;9.216;2022-12-16T03:20:41;94159.84;;;-2.03;100.00
4590;BME280;2307;48.448;9.216;2022-12-16T03:23:12;94160.28;;;-1.99;100.00
4590;BME280;2307;48.448;9.216;2022-12-16T03:25:41;94161.56;;;-1.89;100.00
4590;BME280;2307;48.448;9.216;2022-12-16T03:28:10;94169.69;;;-1.92;100.00
4590;BME280;2307;48.448;9.216;2022-12-16T03:30:43;94173.72;;;-1.83;100.00
4590;BME280;2307;48.448;9.216;2022-12-16T03:33:11;94171.91;;;-1.89;100.00
4590;BME280;2307;48.448;9.216;2022-12-16T03:35:41;94181.75;;;-1.78;100.00
4590;BME280;2307;48.448;9.216;2022-12-16T03:38:10;94181.06;;;-1.86;100.00
4590;BME280;2307;48.448;9.216;2022-12-16T03:40:40;94183.06;;;-1.88;100.00
4590;BME280;2307;48.448;9.216;2022-12-16T03:43:08;94186.88;;;-1.84;100.00
4590;BME280;2307;48.448;9.216;2022-12-16T03:45:36;94183.16;;;-1.75;100.00
4590;BME280;2307;48.448;9.216;2022-12-16T03:48:05;94182.78;;;-1.72;100.00
4590;BME280;2307;48.448;9.216;2022-12-16T03:50:32;94192.28;;;-1.79;100.00
4590;BME280;2307;48.448;9.216;2022-12-16T03:52:59;94193.84;;;-1.85;100.00
4590;BME280;2307;48.448;9.216;2022-12-16T03:55:25;94208.72;;;-1.87;100.00
4590;BME280;2307;48.448;9.216;2022-12-16T03:57:53;94201.13;;;-1.95;100.00
4590;BME280;2307;48.448;9.216;2022-12-16T04:00:21;94205.75;;;-1.90;100.00
4590;BME280;2307;48.448;9.216;2022-12-16T04:02:47;94198.19;;;-1.85;100.00
4590;BME280;2307;48.448;9.216;2022-12-16T04:05:14;94204.34;;;-1.86;100.00
4590;BME280;2307;48.448;9.216;2022-12-16T04:07:41;94208.66;;;-2.00;100.00
4590;BME280;2307;48.448;9.216;2022-12-16T04:10:08;94213.34;;;-1.82;100.00
4590;BME280;2307;48.448;9.216;2022-12-16T04:12:34;94215.72;;;-1.87;100.00
4590;BME280;2307;48.448;9.216;2022-12-16T04:15:19;94216.09;;;-1.84;100.00
4590;BME280;2307;48.448;9.216;2022-12-16T04:18:03;94226.06;;;-1.87;100.00
4590;BME280;2307;48.448;9.216;2022-12-16T04:20:48;94217.91;;;-1.84;100.00
4590;BME280;2307;48.448;9.216;2022-12-16T04:23:33;94222.09;;;-1.83;100.00
4590;BME280;2307;48.448;9.216;2022-12-16T04:26:19;94221.00;;;-1.95;100.00
4590;BME280;2307;48.448;9.216;2022-12-16T04:28:45;94220.69;;;-1.86;100.00
4590;BME280;2307;48.448;9.216;2022-12-16T04:31:13;94218.75;;;-1.77;100.00
4590;BME280;2307;48.448;9.216;2022-12-16T04:33:43;94217.78;;;-1.76;100.00
4590;BME280;2307;48.448;9.216;2022-12-16T04:36:27;94225.53;;;-1.76;100.00
4590;BME280;2307;48.448;9.216;2022-12-16T04:39:11;94233.06;;;-1.81;100.00
4590;BME280;2307;48.448;9.216;2022-12-16T04:41:55;94235.47;;;-1.80;100.00
4590;BME280;2307;48.448;9.216;2022-12-16T04:44:39;94247.31;;;-1.92;100.00
4590;BME280;2307;48.448;9.216;2022-12-16T04:47:24;94247.84;;;-1.96;100.00
4590;BME280;2307;48.448;9.216;2022-12-16T04:50:08;94255.22;;;-2.00;100.00
4590;BME280;2307;48.448;9.216;2022-12-16T04:52:53;94263.38;;;-1.96;100.00
4590;BME280;2307;48.448;9.216;2022-12-16T04:55:37;94260.63;;;-1.95;100.00
4590;BME280;2307;48.448;9.216;2022-12-16T04:58:21;94268.53;;;-1.96;100.00
4590;BME280;2307;48.448;9.216;2022-12-16T05:01:05;94267.41;;;-1.94;100.00
4590;BME280;2307;48.448;9.216;2022-12-16T05:03:51;94261.78;;;-1.97;100.00
4590;BME280;2307;48.448;9.216;2022-12-16T05:06:31;94273.88;;;-2.04;100.00
4590;BME280;2307;48.448;9.216;2022-12-16T05:09:15;94275.28;;;-2.02;100.00
4590;BME280;2307;48.448;9.216;2022-12-16T05:11:59;94276.31;;;-1.96;100.00
4590;BME280;2307;48.448;9.216;2022-12-16T05:14:43;94281.38;;;-2.09;100.00
4590;BME280;2307;48.448;9.216;2022-12-16T05:17:27;94289.31;;;-2.11;100.00
4590;BME280;2307;48.448;9.216;2022-12-16T05:20:12;94287.53;;;-2.10;100.00
4590;BME280;2307;48.448;9.216;2022-12-16T05:22:56;94292.41;;;-2.01;100.00
4590;BME280;2307;48.448;9.216;2022-12-16T05:25:40;94295.16;;;-2.02;100.00
4590;BME280;2307;48.448;9.216;2022-12-16T05:28:24;94291.53;;;-2.08;100.00
4590;BME280;2307;48.448;9.216;2022-12-16T05:31:08;94300.22;;;-1.94;100.00
4590;BME280;2307;48.448;9.216;2022-12-16T05:33:52;94306.38;;;-1.95;100.00
4590;BME280;2307;48.448;9.216;2022-12-16T05:36:38;94307.72;;;-1.99;100.00
4590;BME280;2307;48.448;9.216;2022-12-16T05:39:22;94312.59;;;-2.11;100.00
4590;BME280;2307;48.448;9.216;2022-12-16T05:42:06;94316.44;;;-2.22;100.00
4590;BME280;2307;48.448;9.216;2022-12-16T05:44:50;94316.81;;;-2.25;100.00
4590;BME280;2307;48.448;9.216;2022-12-16T05:47:34;94327.72;;;-2.29;100.00
4590;BME280;2307;48.448;9.216;2022-12-16T05:50:18;94326.31;;;-2.32;100.00
4590;BME280;2307;48.448;9.216;2022-12-16T05:53:03;94328.84;;;-2.53;100.00
4590;BME280;2307;48.448;9.216;2022-12-16T05:55:47;94326.88;;;-2.51;100.00
4590;BME280;2307;48.448;9.216;2022-12-16T05:58:31;94333.44;;;-2.34;100.00
4590;BME280;2307;48.448;9.216;2022-12-16T06:01:15;94344.06;;;-2.43;100.00
4590;BME280;2307;48.448;9.216;2022-12-16T06:03:59;94344.06;;;-2.43;100.00
4590;BME280;2307;48.448;9.216;2022-12-16T06:06:43;94351.88;;;-2.37;100.00
4590;BME280;2307;48.448;9.216;2022-12-16T06:09:28;94347.34;;;-2.35;100.00
4590;BME280;2307;48.448;9.216;2022-12-16T06:12:12;94349.13;;;-2.35;100.00
4590;BME280;2307;48.448;9.216;2022-12-16T06:14:56;94345.25;;;-2.25;100.00
4590;BME280;2307;48.448;9.216;2022-12-16T06:17:40;94352.66;;;-2.22;100.00
4590;BME280;2307;48.448;9.216;2022-12-16T06:20:24;94360.69;;;-2.17;100.00
4590;BME280;2307;48.448;9.216;2022-12-16T06:23:09;94370.47;;;-2.12;100.00
4590;BME280;2307;48.448;9.216;2022-12-16T06:25:54;94375.47;;;-2.10;100.00
4590;BME280;2307;48.448;9.216;2022-12-16T06:28:38;94379.91;;;-2.04;100.00
4590;BME280;2307;48.448;9.216;2022-12-16T06:31:22;94388.66;;;-2.05;100.00
4590;BME280;2307;48.448;9.216;2022-12-16T06:34:06;94387.84;;;-2.06;100.00
4590;BME280;2307;48.448;9.216;2022-12-16T06:36:53;94395.44;;;-2.04;100.00
4590;BME280;2307;48.448;9.216;2022-12-16T06:39:37;94402.47;;;-1.98;100.00
4590;BME280;2307;48.448;9.216;2022-12-16T06:42:30;94408.59;;;-1.99;100.00
4590;BME280;2307;48.448;9.216;2022-12-16T06:45:15;94416.47;;;-2.07;100.00
4590;BME280;2307;48.448;9.216;2022-12-16T06:47:59;94408.72;;;-2.07;100.00
4590;BME280;2307;48.448;9.216;2022-12-16T06:50:42;94423.28;;;-2.06;100.00
4590;BME280;2307;48.448;9.216;2022-12-16T06:53:26;94424.41;;;-2.09;100.00
4590;BME280;2307;48.448;9.216;2022-12-16T06:56:10;94429.78;;;-2.10;100.00
4590;BME280;2307;48.448;9.216;2022-12-16T06:58:56;94433.25;;;-2.03;100.00
4590;BME280;2307;48.448;9.216;2022-12-16T07:01:40;94442.19;;;-1.49;100.00
4590;BME280;2307;48.448;9.216;2022-12-16T07:04:24;94443.03;;;-1.84;100.00
4590;BME280;2307;48.448;9.216;2022-12-16T07:07:08;94448.31;;;-2.07;100.00
4590;BME280;2307;48.448;9.216;2022-12-16T07:09:52;94460.97;;;-2.12;100.00
4590;BME280;2307;48.448;9.216;2022-12-16T07:12:36;94464.22;;;-2.10;100.00
4590;BME280;2307;48.448;9.216;2022-12-16T07:15:23;94471.16;;;-2.10;100.00
4590;BME280;2307;48.448;9.216;2022-12-16T07:18:07;94473.81;;;-2.19;100.00
4590;BME280;2307;48.448;9.216;2022-12-16T07:21:02;94483.91;;;-2.24;100.00
4590;BME280;2307;48.448;9.216;2022-12-16T07:23:46;94483.13;;;-2.24;100.00
4590;BME280;2307;48.448;9.216;2022-12-16T07:26:30;94490.78;;;-2.31;100.00
4590;BME280;2307;48.448;9.216;2022-12-16T07:29:22;94486.41;;;-2.16;100.00
4590;BME280;2307;48.448;9.216;2022-12-16T07:32:07;94494.81;;;-2.13;100.00
4590;BME280;2307;48.448;9.216;2022-12-16T07:34:52;94497.03;;;-2.10;100.00
4590;BME280;2307;48.448;9.216;2022-12-16T07:37:36;94498.34;;;-2.15;100.00
4590;BME280;2307;48.448;9.216;2022-12-16T07:40:20;94505.66;;;-2.18;100.00
4590;BME280;2307;48.448;9.216;2022-12-16T07:43:03;94510.94;;;-2.26;100.00
4590;BME280;2307;48.448;9.216;2022-12-16T07:45:49;94519.97;;;-2.22;100.00
4590;BME280;2307;48.448;9.216;2022-12-16T07:48:34;94522.97;;;-2.19;100.00
4590;BME280;2307;48.448;9.216;2022-12-16T07:51:18;94520.28;;;-2.25;100.00
4590;BME280;2307;48.448;9.216;2022-12-16T07:54:02;94529.22;;;-2.28;100.00
4590;BME280;2307;48.448;9.216;2022-12-16T07:56:46;94530.72;;;-2.33;100.00
4590;BME280;2307;48.448;9.216;2022-12-16T07:59:30;94538.47;;;-2.48;100.00
4590;BME280;2307;48.448;9.216;2022-12-16T08:02:14;94542.69;;;-2.32;100.00
4590;BME280;2307;48.448;9.216;2022-12-16T08:04:59;94549.00;;;-2.35;100.00
4590;BME280;2307;48.448;9.216;2022-12-16T08:07:43;94549.19;;;-2.22;100.00
4590;BME280;2307;48.448;9.216;2022-12-16T08:10:27;94557.84;;;-2.29;100.00
4590;BME280;2307;48.448;9.216;2022-12-16T08:13:11;94564.09;;;-2.24;100.00
4590;BME280;2307;48.448;9.216;2022-12-16T08:15:55;94564.34;;;-2.19;100.00
4590;BME280;2307;48.448;9.216;2022-12-16T08:18:39;94567.03;;;-2.27;100.00
4590;BME280;2307;48.448;9.216;2022-12-16T08:21:24;94565.59;;;-2.29;100.00
4590;BME280;2307;48.448;9.216;2022-12-16T08:24:08;94574.22;;;-2.37;100.00
4590;BME280;2307;48.448;9.216;2022-12-16T08:26:52;94573.25;;;-2.36;100.00
4590;BME280;2307;48.448;9.216;2022-12-16T08:29:36;94572.84;;;-2.47;100.00
4590;BME280;2307;48.448;9.216;2022-12-16T08:32:20;94583.59;;;-2.36;100.00
4590;BME280;2307;48.448;9.216;2022-12-16T08:35:04;94580.66;;;-2.33;100.00
4590;BME280;2307;48.448;9.216;2022-12-16T08:37:49;94589.94;;;-2.38;100.00
4590;BME280;2307;48.448;9.216;2022-12-16T08:40:36;94595.59;;;-2.43;100.00
4590;BME280;2307;48.448;9.216;2022-12-16T08:43:20;94594.19;;;-2.45;100.00
4590;BME280;2307;48.448;9.216;2022-12-16T08:46:04;94595.72;;;-2.36;100.00
4590;BME280;2307;48.448;9.216;2022-12-16T08:48:48;94602.78;;;-2.30;100.00
4590;BME280;2307;48.448;9.216;2022-12-16T08:51:32;94606.06;;;-2.22;100.00
4590;BME280;2307;48.448;9.216;2022-12-16T08:54:17;94620.22;;;-2.09;100.00
4590;BME280;2307;48.448;9.216;2022-12-16T08:57:01;94612.16;;;-2.15;100.00
4590;BME280;2307;48.448;9.216;2022-12-16T08:59:45;94625.91;;;-1.99;100.00
4590;BME280;2307;48.448;9.216;2022-12-16T09:02:29;94623.06;;;-2.04;100.00
4590;BME280;2307;48.448;9.216;2022-12-16T09:05:13;94631.06;;;-1.99;100.00
4590;BME280;2307;48.448;9.216;2022-12-16T09:08:08;94643.28;;;-2.23;100.00
4590;BME280;2307;48.448;9.216;2022-12-16T09:10:54;94640.25;;;-2.11;100.00
4590;BME280;2307;48.448;9.216;2022-12-16T09:13:37;94659.97;;;-1.96;100.00
4590;BME280;2307;48.448;9.216;2022-12-16T09:16:21;94656.50;;;-2.03;100.00
4590;BME280;2307;48.448;9.216;2022-12-16T09:19:05;94652.22;;;-1.96;100.00
4590;BME280;2307;48.448;9.216;2022-12-16T09:21:49;94659.13;;;-1.88;100.00
4590;BME280;2307;48.448;9.216;2022-12-16T09:24:33;94665.09;;;-1.73;100.00
4590;BME280;2307;48.448;9.216;2022-12-16T09:27:18;94656.88;;;-1.77;100.00
4590;BME280;2307;48.448;9.216;2022-12-16T09:30:03;94660.72;;;-1.87;100.00
4590;BME280;2307;48.448;9.216;2022-12-16T09:32:47;94662.31;;;-1.86;100.00
4590;BME280;2307;48.448;9.216;2022-12-16T09:35:31;94661.69;;;-1.88;100.00
4590;BME280;2307;48.448;9.216;2022-12-16T09:38:15;94662.31;;;-1.86;100.00
4590;BME280;2307;48.448;9.216;2022-12-16T09:40:59;94656.06;;;-1.77;100.00
4590;BME280;2307;48.448;9.216;2022-12-16T09:44:03;94664.56;;;-1.83;100.00
4590;BME280;2307;48.448;9.216;2022-12-16T09:46:49;94660.91;;;-1.74;100.00
4590;BME280;2307;48.448;9.216;2022-12-16T09:49:40;94679.38;;;-1.77;100.00
4590;BME280;2307;48.448;9.216;2022-12-16T09:52:26;94677.69;;;-1.70;100.00
4590;BME280;2307;48.448;9.216;2022-12-16T09:55:18;94686.25;;;-1.70;100.00
4590;BME280;2307;48.448;9.216;2022-12-16T09:58:05;94687.69;;;-1.67;100.00
4590;BME280;2307;48.448;9.216;2022-12-16T10:00:51;94687.34;;;-1.64;100.00
4590;BME280;2307;48.448;9.216;2022-12-16T10:03:33;94689.22;;;-1.73;100.00
4590;BME280;2307;48.448;9.216;2022-12-16T10:06:21;94690.91;;;-1.65;100.00
4590;BME280;2307;48.448;9.216;2022-12-16T10:09:15;94687.53;;;-1.51;100.00
4590;BME280;2307;48.448;9.216;2022-12-16T10:12:04;94691.97;;;-1.45;100.00
4590;BME280;2307;48.448;9.216;2022-12-16T10:14:55;94693.31;;;-1.64;100.00
4590;BME280;2307;48.448;9.216;2022-12-16T10:17:44;94694.03;;;-1.55;100.00
4590;BME280;2307;48.448;9.216;2022-12-16T10:20:29;94696.91;;;-1.50;100.00
4590;BME280;2307;48.448;9.216;2022-12-16T10:23:16;94701.72;;;-1.47;100.00
4590;BME280;2307;48.448;9.216;2022-12-16T10:26:04;94698.06;;;-1.52;100.00
4590;BME280;2307;48.448;9.216;2022-12-16T10:29:03;94713.16;;;-1.56;100.00
4590;BME280;2307;48.448;9.216;2022-12-16T10:31:50;94709.03;;;-1.50;100.00
4590;BME280;2307;48.448;9.216;2022-12-16T10:34:35;94708.44;;;-1.52;100.00
4590;BME280;2307;48.448;9.216;2022-12-16T10:37:20;94712.97;;;-1.54;100.00
4590;BME280;2307;48.448;9.216;2022-12-16T10:40:12;94713.34;;;-1.43;100.00
4590;BME280;2307;48.448;9.216;2022-12-16T10:42:59;94717.78;;;-1.51;100.00
4590;BME280;2307;48.448;9.216;2022-12-16T10:45:44;94715.03;;;-1.50;100.00
4590;BME280;2307;48.448;9.216;2022-12-16T10:48:31;94712.34;;;-1.42;100.00
4590;BME280;2307;48.448;9.216;2022-12-16T10:51:17;94709.94;;;-1.29;100.00
4590;BME280;2307;48.448;9.216;2022-12-16T10:54:12;94699.41;;;-1.27;100.00
4590;BME280;2307;48.448;9.216;2022-12-16T10:56:59;94705.56;;;-1.43;100.00
4590;BME280;2307;48.448;9.216;2022-12-16T10:59:48;94702.78;;;-1.27;100.00
4590;BME280;2307;48.448;9.216;2022-12-16T11:02:32;94709.56;;;-1.26;100.00
4590;BME280;2307;48.448;9.216;2022-12-16T11:05:28;94708.31;;;-1.59;100.00
4590;BME280;2307;48.448;9.216;2022-12-16T11:08:23;94711.44;;;-1.49;100.00
4590;BME280;2307;48.448;9.216;2022-12-16T11:11:12;94709.22;;;-1.23;100.00
4590;BME280;2307;48.448;9.216;2022-12-16T11:14:11;94705.00;;;-1.24;100.00
4590;BME280;2307;48.448;9.216;2022-12-16T11:17:11;94706.09;;;-1.33;100.00
4590;BME280;2307;48.448;9.216;2022-12-16T11:23:13;94711.44;;;-1.20;100.00
4590;BME280;2307;48.448;9.216;2022-12-16T11:26:06;94715.75;;;-1.41;100.00
4590;BME280;2307;48.448;9.216;2022-12-16T11:29:00;94719.84;;;-1.47;100.00
4590;BME280;2307;48.448;9.216;2022-12-16T11:31:44;94712.88;;;-1.32;100.00
4590;BME280;2307;48.448;9.216;2022-12-16T11:34:29;94720.19;;;-1.35;100.00
4590;BME280;2307;48.448;9.216;2022-12-16T11:37:10;94711.56;;;-1.28;100.00
4590;BME280;2307;48.448;9.216;2022-12-16T11:39:54;94721.19;;;-1.07;100.00
4590;BME280;2307;48.448;9.216;2022-12-16T11:42:39;94718.84;;;-0.87;100.00
4590;BME280;2307;48.448;9.216;2022-12-16T11:45:23;94724.03;;;-1.02;100.00
4590;BME280;2307;48.448;9.216;2022-12-16T11:48:07;94726.63;;;-1.02;100.00
4590;BME280;2307;48.448;9.216;2022-12-16T11:50:56;94730.63;;;-0.85;100.00
4590;BME280;2307;48.448;9.216;2022-12-16T11:53:37;94728.94;;;-0.92;100.00
4590;BME280;2307;48.448;9.216;2022-12-16T11:56:23;94729.94;;;-0.93;100.00
4590;BME280;2307;48.448;9.216;2022-12-16T11:59:11;94743.09;;;-0.59;100.00
4590;BME280;2307;48.448;9.216;2022-12-16T12:02:01;94749.22;;;-0.67;100.00
4590;BME280;2307;48.448;9.216;2022-12-16T12:04:47;94760.00;;;-0.63;100.00
4590;BME280;2307;48.448;9.216;2022-12-16T12:07:33;94751.97;;;-0.68;100.00
4590;BME280;2307;48.448;9.216;2022-12-16T12:10:37;94749.44;;;-0.62;100.00
4590;BME280;2307;48.448;9.216;2022-12-16T12:13:30;94753.38;;;-0.51;100.00
4590;BME280;2307;48.448;9.216;2022-12-16T12:16:20;94758.41;;;-0.64;100.00
4590;BME280;2307;48.448;9.216;2022-12-16T12:19:11;94762.38;;;-0.47;100.00
4590;BME280;2307;48.448;9.216;2022-12-16T12:21:58;94765.03;;;-0.76;100.00
4590;BME280;2307;48.448;9.216;2022-12-16T12:24:44;94761.84;;;-0.57;100.00
4590;BME280;2307;48.448;9.216;2022-12-16T12:27:45;94777.41;;;-0.57;100.00
4590;BME280;2307;48.448;9.216;2022-12-16T12:30:37;94772.09;;;-0.70;100.00
4590;BME280;2307;48.448;9.216;2022-12-16T12:33:29;94766.91;;;-0.70;100.00
4590;BME280;2307;48.448;9.216;2022-12-16T12:36:17;94776.19;;;-0.76;100.00
4590;BME280;2307;48.448;9.216;2022-12-16T12:39:09;94777.00;;;-0.75;100.00
4590;BME280;2307;48.448;9.216;2022-12-16T12:41:57;94768.59;;;-0.77;100.00
4590;BME280;2307;48.448;9.216;2022-12-16T12:44:48;94777.09;;;-0.69;100.00
4590;BME280;2307;48.448;9.216;2022-12-16T12:47:37;94771.63;;;-0.59;100.00
4590;BME280;2307;48.448;9.216;2022-12-16T12:50:27;94778.56;;;-0.45;100.00
4590;BME280;2307;48.448;9.216;2022-12-16T12:53:14;94774.03;;;-0.58;100.00
4590;BME280;2307;48.448;9.216;2022-12-16T12:56:04;94782.50;;;-0.49;100.00
4590;BME280;2307;48.448;9.216;2022-12-16T12:58:49;94790.03;;;-0.54;100.00
4590;BME280;2307;48.448;9.216;2022-12-16T13:01:34;94793.50;;;-0.47;100.00
4590;BME280;2307;48.448;9.216;2022-12-16T13:04:21;94795.00;;;-0.02;100.00
4590;BME280;2307;48.448;9.216;2022-12-16T13:07:08;94799.94;;;-0.43;100.00
4590;BME280;2307;48.448;9.216;2022-12-16T13:13:19;94799.28;;;-0.81;100.00
4590;BME280;2307;48.448;9.216;2022-12-16T13:16:08;94814.91;;;-0.74;100.00
4590;BME280;2307;48.448;9.216;2022-12-16T13:19:06;94817.50;;;-0.74;100.00
4590;BME280;2307;48.448;9.216;2022-12-16T13:22:26;94820.38;;;-0.84;100.00
4590;BME280;2307;48.448;9.216;2022-12-16T13:25:25;94823.84;;;-0.91;100.00
4590;BME280;2307;48.448;9.216;2022-12-16T13:28:18;94819.00;;;-0.94;100.00
4590;BME280;2307;48.448;9.216;2022-12-16T13:31:03;94826.06;;;-0.88;100.00
4590;BME280;2307;48.448;9.216;2022-12-16T13:33:49;94832.50;;;-0.84;100.00
4590;BME280;2307;48.448;9.216;2022-12-16T13:36:34;94835.81;;;-0.90;100.00
4590;BME280;2307;48.448;9.216;2022-12-16T13:39:23;94842.13;;;-1.08;100.00
4590;BME280;2307;48.448;9.216;2022-12-16T13:45:14;94839.13;;;-0.96;100.00
4590;BME280;2307;48.448;9.216;2022-12-16T13:48:00;94847.06;;;-0.98;100.00
4590;BME280;2307;48.448;9.216;2022-12-16T13:50:44;94844.94;;;-0.94;100.00
4590;BME280;2307;48.448;9.216;2022-12-16T13:53:29;94844.84;;;-0.86;100.00
4590;BME280;2307;48.448;9.216;2022-12-16T13:56:16;94844.06;;;-0.87;100.00
4590;BME280;2307;48.448;9.216;2022-12-16T13:59:03;94854.22;;;-0.85;100.00
4590;BME280;2307;48.448;9.216;2022-12-16T14:01:49;94858.63;;;-0.86;100.00
4590;BME280;2307;48.448;9.216;2022-12-16T14:04:35;94864.84;;;-0.95;100.00
4590;BME280;2307;48.448;9.216;2022-12-16T14:07:20;94871.00;;;-1.11;100.00
4590;BME280;2307;48.448;9.216;2022-12-16T14:10:05;94878.06;;;-1.04;100.00
4590;BME280;2307;48.448;9.216;2022-12-16T14:12:55;94887.56;;;-0.97;100.00
4590;BME280;2307;48.448;9.216;2022-12-16T14:15:45;94886.75;;;-0.97;100.00
4590;BME280;2307;48.448;9.216;2022-12-16T14:18:35;94899.78;;;-1.05;100.00
4590;BME280;2307;48.448;9.216;2022-12-16T14:21:23;94905.25;;;-1.00;100.00
4590;BME280;2307;48.448;9.216;2022-12-16T14:24:11;94902.28;;;-0.97;100.00
4590;BME280;2307;48.448;9.216;2022-12-16T14:27:03;94910.72;;;-0.95;100.00
4590;BME280;2307;48.448;9.216;2022-12-16T14:29:49;94914.63;;;-0.99;100.00
4590;BME280;2307;48.448;9.216;2022-12-16T14:32:33;94916.03;;;-1.12;100.00
4590;BME280;2307;48.448;9.216;2022-12-16T14:35:19;94923.88;;;-1.20;100.00
4590;BME280;2307;48.448;9.216;2022-12-16T14:38:11;94923.16;;;-1.14;100.00
4590;BME280;2307;48.448;9.216;2022-12-16T14:40:55;94929.81;;;-1.11;100.00